sensor_id;sensor_type;location;lat;lon;timestamp;P1;durP1;ratioP1;P2;durP2;ratioP2
27003;SDS011;14546;47.590;19.022;2023-04-06T00:01:35;26.17;;;12.88;;
27003;SDS011;14546;47.590;19.022;2023-04-06T00:04:01;29.15;;;13.70;;
27003;SDS011;14546;47.590;19.022;2023-04-06T00:06:27;21.55;;;11.93;;
27003;SDS011;14546;47.590;19.022;2023-04-06T00:08:52;33.58;;;13.25;;
27003;SDS011;14546;47.590;19.022;2023-04-06T00:11:18;24.27;;;11.15;;
27003;SDS011;14546;47.590;19.022;2023-04-06T00:13:44;25.95;;;12.93;;
27003;SDS011;14546;47.590;19.022;2023-04-06T00:16:10;30.13;;;12.40;;
27003;SDS011;14546;47.590;19.022;2023-04-06T00:18:36;24.10;;;11.88;;
27003;SDS011;14546;47.590;19.022;2023-04-06T00:21:01;22.45;;;11.68;;
27003;SDS011;14546;47.590;19.022;2023-04-06T00:23:27;25.33;;;11.07;;
27003;SDS011;14546;47.590;19.022;2023-04-06T00:25:53;28.02;;;10.98;;
27003;SDS011;14546;47.590;19.022;2023-04-06T00:28:19;21.45;;;10.68;;
27003;SDS011;14546;47.590;19.022;2023-04-06T00:30:50;24.92;;;11.23;;
27003;SDS011;14546;47.590;19.022;2023-04-06T00:33:17;22.23;;;11.32;;
27003;SDS011;14546;47.590;19.022;2023-04-06T00:35:43;23.05;;;10.77;;
27003;SDS011;14546;47.590;19.022;2023-04-06T00:38:09;22.63;;;9.70;;
27003;SDS011;14546;47.590;19.022;2023-04-06T00:40:35;21.05;;;9.95;;
27003;SDS011;14546;47.590;19.022;2023-04-06T00:43:00;19.17;;;10.82;;
27003;SDS011;14546;47.590;19.022;2023-04-06T00:45:26;21.10;;;10.27;;
27003;SDS011;14546;47.590;19.022;2023-04-06T00:47:52;24.65;;;12.00;;
27003;SDS011;14546;47.590;19.022;2023-04-06T00:50:18;27.45;;;11.80;;
27003;SDS011;14546;47.590;19.022;2023-04-06T00:52:44;26.60;;;12.90;;
27003;SDS011;14546;47.590;19.022;2023-04-06T00:55:10;26.70;;;12.75;;
27003;SDS011;14546;47.590;19.022;2023-04-06T00:57:35;26.00;;;12.82;;
27003;SDS011;14546;47.590;19.022;2023-04-06T01:00:01;30.23;;;12.88;;
27003;SDS011;14546;47.590;19.022;2023-04-06T01:02:28;22.45;;;12.48;;
27003;SDS011;14546;47.590;19.022;2023-04-06T01:04:54;23.50;;;11.77;;
27003;SDS011;14546;47.590;19.022;2023-04-06T01:07:20;21.05;;;11.25;;
27003;SDS011;14546;47.590;19.022;2023-04-06T01:09:46;25.42;;;12.20;;
27003;SDS011;14546;47.590;19.022;2023-04-06T01:12:11;25.50;;;11.43;;
27003;SDS011;14546;47.590;19.022;2023-04-06T01:14:37;27.90;;;12.70;;
27003;SDS011;14546;47.590;19.022;2023-04-06T01:17:02;22.08;;;11.38;;
27003;SDS011;14546;47.590;19.022;2023-04-06T01:19:28;20.30;;;11.40;;
27003;SDS011;14546;47.590;19.022;2023-04-06T01:21:54;22.50;;;10.15;;
27003;SDS011;14546;47.590;19.022;2023-04-06T01:24:20;23.75;;;10.23;;
27003;SDS011;14546;47.590;19.022;2023-04-06T01:26:46;23.27;;;11.20;;
27003;SDS011;14546;47.590;19.022;2023-04-06T01:29:12;22.40;;;10.48;;
27003;SDS011;14546;47.590;19.022;2023-04-06T01:31:38;22.95;;;11.90;;
27003;SDS011;14546;47.590;19.022;2023-04-06T01:34:04;26.38;;;12.02;;
27003;SDS011;14546;47.590;19.022;2023-04-06T01:36:30;25.42;;;11.73;;
27003;SDS011;14546;47.590;19.022;2023-04-06T01:38:56;21.95;;;11.80;;
27003;SDS011;14546;47.590;19.022;2023-04-06T01:41:22;27.23;;;11.68;;
27003;SDS011;14546;47.590;19.022;2023-04-06T01:43:48;25.02;;;10.88;;
27003;SDS011;14546;47.590;19.022;2023-04-06T01:46:14;21.75;;;11.65;;
27003;SDS011;14546;47.590;19.022;2023-04-06T01:48:40;22.00;;;10.95;;
27003;SDS011;14546;47.590;19.022;2023-04-06T01:51:06;25.60;;;11.95;;
27003;SDS011;14546;47.590;19.022;2023-04-06T01:53:32;24.30;;;11.77;;
27003;SDS011;14546;47.590;19.022;2023-04-06T01:55:57;21.88;;;11.05;;
27003;SDS011;14546;47.590;19.022;2023-04-06T01:58:23;23.27;;;11.25;;
27003;SDS011;14546;47.590;19.022;2023-04-06T02:00:49;22.35;;;11.07;;
27003;SDS011;14546;47.590;19.022;2023-04-06T02:03:14;28.92;;;11.88;;
27003;SDS011;14546;47.590;19.022;2023-04-06T02:05:40;26.17;;;10.98;;
27003;SDS011;14546;47.590;19.022;2023-04-06T02:08:06;21.95;;;10.85;;
27003;SDS011;14546;47.590;19.022;2023-04-06T02:10:33;20.15;;;10.77;;
27003;SDS011;14546;47.590;19.022;2023-04-06T02:12:59;21.40;;;10.98;;
27003;SDS011;14546;47.590;19.022;2023-04-06T02:15:25;23.88;;;11.43;;
27003;SDS011;14546;47.590;19.022;2023-04-06T02:17:51;21.25;;;11.23;;
27003;SDS011;14546;47.590;19.022;2023-04-06T02:20:17;21.92;;;10.80;;
27003;SDS011;14546;47.590;19.022;2023-04-06T02:22:42;19.60;;;10.35;;
27003;SDS011;14546;47.590;19.022;2023-04-06T02:25:09;21.23;;;9.88;;
27003;SDS011;14546;47.590;19.022;2023-04-06T02:27:35;21.10;;;10.75;;
27003;SDS011;14546;47.590;19.022;2023-04-06T02:30:01;17.15;;;9.43;;
27003;SDS011;14546;47.590;19.022;2023-04-06T02:32:27;23.13;;;10.60;;
27003;SDS011;14546;47.590;19.022;2023-04-06T02:34:53;20.83;;;10.60;;
27003;SDS011;14546;47.590;19.022;2023-04-06T02:37:19;19.90;;;9.80;;
27003;SDS011;14546;47.590;19.022;2023-04-06T02:39:45;21.23;;;10.57;;
27003;SDS011;14546;47.590;19.022;2023-04-06T02:42:11;17.95;;;9.88;;
27003;SDS011;14546;47.590;19.022;2023-04-06T02:44:36;18.88;;;10.43;;
27003;SDS011;14546;47.590;19.022;2023-04-06T02:47:02;30.17;;;11.55;;
27003;SDS011;14546;47.590;19.022;2023-04-06T02:49:28;24.08;;;10.05;;
27003;SDS011;14546;47.590;19.022;2023-04-06T02:51:53;21.77;;;10.30;;
27003;SDS011;14546;47.590;19.022;2023-04-06T02:54:19;24.52;;;10.57;;
27003;SDS011;14546;47.590;19.022;2023-04-06T02:56:44;19.77;;;10.00;;
27003;SDS011;14546;47.590;19.022;2023-04-06T02:59:10;21.80;;;10.43;;
27003;SDS011;14546;47.590;19.022;2023-04-06T03:01:36;21.95;;;10.57;;
27003;SDS011;14546;47.590;19.022;2023-04-06T03:04:02;19.20;;;10.18;;
27003;SDS011;14546;47.590;19.022;2023-04-06T03:06:27;21.35;;;9.88;;
27003;SDS011;14546;47.590;19.022;2023-04-06T03:08:53;24.77;;;10.88;;
27003;SDS011;14546;47.590;19.022;2023-04-06T03:11:19;24.83;;;10.07;;
27003;SDS011;14546;47.590;19.022;2023-04-06T03:13:45;23.63;;;10.93;;
27003;SDS011;14546;47.590;19.022;2023-04-06T03:16:11;19.23;;;10.20;;
27003;SDS011;14546;47.590;19.022;2023-04-06T03:18:37;23.55;;;10.93;;
27003;SDS011;14546;47.590;19.022;2023-04-06T03:21:02;20.35;;;10.38;;
27003;SDS011;14546;47.590;19.022;2023-04-06T03:23:28;20.08;;;9.77;;
27003;SDS011;14546;47.590;19.022;2023-04-06T03:25:54;18.23;;;9.48;;
27003;SDS011;14546;47.590;19.022;2023-04-06T03:28:20;20.17;;;10.52;;
27003;SDS011;14546;47.590;19.022;2023-04-06T03:30:46;18.27;;;10.57;;
27003;SDS011;14546;47.590;19.022;2023-04-06T03:33:11;23.58;;;10.57;;
27003;SDS011;14546;47.590;19.022;2023-04-06T03:35:37;23.63;;;9.82;;
27003;SDS011;14546;47.590;19.022;2023-04-06T03:38:03;22.20;;;10.52;;
27003;SDS011;14546;47.590;19.022;2023-04-06T03:40:32;20.75;;;10.50;;
27003;SDS011;14546;47.590;19.022;2023-04-06T03:42:58;20.58;;;10.77;;
27003;SDS011;14546;47.590;19.022;2023-04-06T03:45:23;18.25;;;9.80;;
27003;SDS011;14546;47.590;19.022;2023-04-06T03:47:49;21.58;;;9.88;;
27003;SDS011;14546;47.590;19.022;2023-04-06T03:50:15;24.92;;;10.90;;
27003;SDS011;14546;47.590;19.022;2023-04-06T03:52:40;19.00;;;9.95;;
27003;SDS011;14546;47.590;19.022;2023-04-06T03:55:06;21.67;;;10.75;;
27003;SDS011;14546;47.590;19.022;2023-04-06T03:57:33;21.08;;;10.65;;
27003;SDS011;14546;47.590;19.022;2023-04-06T03:59:58;25.73;;;10.43;;
27003;SDS011;14546;47.590;19.022;2023-04-06T04:02:24;22.17;;;10.65;;
27003;SDS011;14546;47.590;19.022;2023-04-06T04:04:50;24.58;;;11.55;;
27003;SDS011;14546;47.590;19.022;2023-04-06T04:07:15;21.50;;;10.63;;
27003;SDS011;14546;47.590;19.022;2023-04-06T04:09:41;23.35;;;11.15;;
27003;SDS011;14546;47.590;19.022;2023-04-06T04:12:07;21.60;;;11.55;;
27003;SDS011;14546;47.590;19.022;2023-04-06T04:14:32;22.02;;;11.10;;
27003;SDS011;14546;47.590;19.022;2023-04-06T04:16:58;23.73;;;12.18;;
27003;SDS011;14546;47.590;19.022;2023-04-06T04:19:24;20.95;;;11.30;;
27003;SDS011;14546;47.590;19.022;2023-04-06T04:21:49;22.15;;;11.98;;
27003;SDS011;14546;47.590;19.022;2023-04-06T04:24:15;27.50;;;12.93;;
27003;SDS011;14546;47.590;19.022;2023-04-06T04:26:41;23.25;;;11.40;;
27003;SDS011;14546;47.590;19.022;2023-04-06T04:29:06;22.90;;;11.35;;
27003;SDS011;14546;47.590;19.022;2023-04-06T04:31:32;25.17;;;12.35;;
27003;SDS011;14546;47.590;19.022;2023-04-06T04:33:59;28.00;;;12.35;;
27003;SDS011;14546;47.590;19.022;2023-04-06T04:36:25;28.88;;;12.35;;
27003;SDS011;14546;47.590;19.022;2023-04-06T04:38:51;28.08;;;12.82;;
27003;SDS011;14546;47.590;19.022;2023-04-06T04:41:17;31.15;;;13.82;;
27003;SDS011;14546;47.590;19.022;2023-04-06T04:43:43;33.35;;;14.43;;
27003;SDS011;14546;47.590;19.022;2023-04-06T04:46:09;33.28;;;13.65;;
27003;SDS011;14546;47.590;19.022;2023-04-06T04:48:35;30.85;;;14.05;;
27003;SDS011;14546;47.590;19.022;2023-04-06T04:51:01;28.15;;;13.55;;
27003;SDS011;14546;47.590;19.022;2023-04-06T04:53:26;26.83;;;13.60;;
27003;SDS011;14546;47.590;19.022;2023-04-06T04:55:52;26.60;;;13.52;;
27003;SDS011;14546;47.590;19.022;2023-04-06T04:58:18;28.13;;;13.50;;
27003;SDS011;14546;47.590;19.022;2023-04-06T05:00:44;30.10;;;14.00;;
27003;SDS011;14546;47.590;19.022;2023-04-06T05:03:18;26.88;;;13.65;;
27003;SDS011;14546;47.590;19.022;2023-04-06T05:05:47;27.88;;;13.63;;
27003;SDS011;14546;47.590;19.022;2023-04-06T05:08:13;28.30;;;13.65;;
27003;SDS011;14546;47.590;19.022;2023-04-06T05:10:39;31.40;;;13.27;;
27003;SDS011;14546;47.590;19.022;2023-04-06T05:13:04;30.17;;;13.18;;
27003;SDS011;14546;47.590;19.022;2023-04-06T05:15:30;25.30;;;12.93;;
27003;SDS011;14546;47.590;19.022;2023-04-06T05:17:56;29.55;;;13.43;;
27003;SDS011;14546;47.590;19.022;2023-04-06T05:20:22;30.42;;;13.02;;
27003;SDS011;14546;47.590;19.022;2023-04-06T05:22:48;27.30;;;13.07;;
27003;SDS011;14546;47.590;19.022;2023-04-06T05:25:14;29.63;;;13.43;;
27003;SDS011;14546;47.590;19.022;2023-04-06T05:27:39;24.15;;;13.38;;
27003;SDS011;14546;47.590;19.022;2023-04-06T05:30:06;29.10;;;13.40;;
27003;SDS011;14546;47.590;19.022;2023-04-06T05:32:33;23.30;;;13.73;;
27003;SDS011;14546;47.590;19.022;2023-04-06T05:34:59;28.95;;;13.13;;
27003;SDS011;14546;47.590;19.022;2023-04-06T05:37:25;22.75;;;13.02;;
27003;SDS011;14546;47.590;19.022;2023-04-06T05:39:50;35.47;;;14.07;;
27003;SDS011;14546;47.590;19.022;2023-04-06T05:42:16;28.60;;;13.68;;
27003;SDS011;14546;47.590;19.022;2023-04-06T05:44:42;25.90;;;12.75;;
27003;SDS011;14546;47.590;19.022;2023-04-06T05:47:08;25.80;;;12.63;;
27003;SDS011;14546;47.590;19.022;2023-04-06T05:49:33;29.42;;;13.40;;
27003;SDS011;14546;47.590;19.022;2023-04-06T05:52:00;39.20;;;14.75;;
27003;SDS011;14546;47.590;19.022;2023-04-06T05:54:26;26.83;;;13.00;;
27003;SDS011;14546;47.590;19.022;2023-04-06T05:56:51;31.35;;;12.63;;
27003;SDS011;14546;47.590;19.022;2023-04-06T05:59:17;30.88;;;15.77;;
27003;SDS011;14546;47.590;19.022;2023-04-06T06:01:43;32.67;;;15.20;;
27003;SDS011;14546;47.590;19.022;2023-04-06T06:04:08;29.20;;;14.88;;
27003;SDS011;14546;47.590;19.022;2023-04-06T06:06:34;29.88;;;15.02;;
27003;SDS011;14546;47.590;19.022;2023-04-06T06:09:00;29.95;;;14.27;;
27003;SDS011;14546;47.590;19.022;2023-04-06T06:11:28;30.27;;;13.38;;
27003;SDS011;14546;47.590;19.022;2023-04-06T06:13:54;25.60;;;13.45;;
27003;SDS011;14546;47.590;19.022;2023-04-06T06:16:20;25.42;;;12.25;;
27003;SDS011;14546;47.590;19.022;2023-04-06T06:18:46;22.92;;;12.25;;
27003;SDS011;14546;47.590;19.022;2023-04-06T06:21:12;30.40;;;13.43;;
27003;SDS011;14546;47.590;19.022;2023-04-06T06:23:38;29.33;;;12.93;;
27003;SDS011;14546;47.590;19.022;2023-04-06T06:26:07;22.83;;;11.82;;
27003;SDS011;14546;47.590;19.022;2023-04-06T06:28:35;25.92;;;12.88;;
27003;SDS011;14546;47.590;19.022;2023-04-06T06:31:01;26.58;;;13.02;;
27003;SDS011;14546;47.590;19.022;2023-04-06T06:33:27;26.67;;;12.75;;
27003;SDS011;14546;47.590;19.022;2023-04-06T06:35:52;28.98;;;12.68;;
27003;SDS011;14546;47.590;19.022;2023-04-06T06:38:18;24.40;;;12.45;;
27003;SDS011;14546;47.590;19.022;2023-04-06T06:40:46;29.27;;;13.05;;
27003;SDS011;14546;47.590;19.022;2023-04-06T06:43:15;23.02;;;12.05;;
27003;SDS011;14546;47.590;19.022;2023-04-06T06:45:41;22.73;;;11.52;;
27003;SDS011;14546;47.590;19.022;2023-04-06T06:48:07;23.17;;;11.45;;
27003;SDS011;14546;47.590;19.022;2023-04-06T06:50:32;24.60;;;13.15;;
27003;SDS011;14546;47.590;19.022;2023-04-06T06:52:58;22.02;;;12.43;;
27003;SDS011;14546;47.590;19.022;2023-04-06T06:55:24;20.13;;;11.40;;
27003;SDS011;14546;47.590;19.022;2023-04-06T06:57:51;24.52;;;13.05;;
27003;SDS011;14546;47.590;19.022;2023-04-06T07:00:17;22.00;;;12.07;;
27003;SDS011;14546;47.590;19.022;2023-04-06T07:02:45;27.33;;;12.63;;
27003;SDS011;14546;47.590;19.022;2023-04-06T07:05:15;25.80;;;12.75;;
27003;SDS011;14546;47.590;19.022;2023-04-06T07:07:41;26.05;;;12.98;;
27003;SDS011;14546;47.590;19.022;2023-04-06T07:10:07;26.60;;;12.73;;
27003;SDS011;14546;47.590;19.022;2023-04-06T07:12:33;23.33;;;12.10;;
27003;SDS011;14546;47.590;19.022;2023-04-06T07:14:59;25.35;;;12.65;;
27003;SDS011;14546;47.590;19.022;2023-04-06T07:17:24;24.55;;;11.98;;
27003;SDS011;14546;47.590;19.022;2023-04-06T08:10:32;22.48;;;10.57;;
27003;SDS011;14546;47.590;19.022;2023-04-06T08:12:59;18.67;;;9.23;;
27003;SDS011;14546;47.590;19.022;2023-04-06T08:15:25;16.45;;;9.27;;
27003;SDS011;14546;47.590;19.022;2023-04-06T08:17:51;42.10;;;10.02;;
27003;SDS011;14546;47.590;19.022;2023-04-06T08:20:16;16.25;;;8.40;;
27003;SDS011;14546;47.590;19.022;2023-04-06T08:22:42;20.83;;;10.02;;
27003;SDS011;14546;47.590;19.022;2023-04-06T08:25:08;18.20;;;10.45;;
27003;SDS011;14546;47.590;19.022;2023-04-06T08:27:33;18.23;;;9.88;;
27003;SDS011;14546;47.590;19.022;2023-04-06T08:29:59;21.58;;;9.65;;
27003;SDS011;14546;47.590;19.022;2023-04-06T08:32:25;23.20;;;9.80;;
27003;SDS011;14546;47.590;19.022;2023-04-06T08:34:53;16.15;;;8.82;;
27003;SDS011;14546;47.590;19.022;2023-04-06T08:37:20;16.13;;;7.70;;
27003;SDS011;14546;47.590;19.022;2023-04-06T08:39:46;15.73;;;8.38;;
27003;SDS011;14546;47.590;19.022;2023-04-06T08:42:12;17.27;;;8.70;;
27003;SDS011;14546;47.590;19.022;2023-04-06T08:44:44;16.63;;;8.18;;
27003;SDS011;14546;47.590;19.022;2023-04-06T08:47:11;21.65;;;9.25;;
27003;SDS011;14546;47.590;19.022;2023-04-06T08:49:37;16.73;;;8.35;;
27003;SDS011;14546;47.590;19.022;2023-04-06T08:52:06;16.42;;;8.23;;
27003;SDS011;14546;47.590;19.022;2023-04-06T08:54:33;18.02;;;8.00;;
27003;SDS011;14546;47.590;19.022;2023-04-06T08:56:59;20.70;;;8.32;;
27003;SDS011;14546;47.590;19.022;2023-04-06T08:59:26;18.80;;;9.70;;
27003;SDS011;14546;47.590;19.022;2023-04-06T09:01:52;16.85;;;8.60;;
27003;SDS011;14546;47.590;19.022;2023-04-06T09:04:19;22.55;;;9.63;;
27003;SDS011;14546;47.590;19.022;2023-04-06T09:06:45;15.93;;;8.02;;
27003;SDS011;14546;47.590;19.022;2023-04-06T09:09:11;16.88;;;7.80;;
27003;SDS011;14546;47.590;19.022;2023-04-06T09:11:44;18.77;;;9.43;;
27003;SDS011;14546;47.590;19.022;2023-04-06T09:16:40;21.80;;;8.85;;
27003;SDS011;14546;47.590;19.022;2023-04-06T09:19:06;22.88;;;8.77;;
27003;SDS011;14546;47.590;19.022;2023-04-06T09:21:32;36.40;;;10.75;;
27003;SDS011;14546;47.590;19.022;2023-04-06T09:24:01;24.02;;;9.75;;
27003;SDS011;14546;47.590;19.022;2023-04-06T09:26:27;31.17;;;10.07;;
27003;SDS011;14546;47.590;19.022;2023-04-06T09:28:54;25.90;;;10.27;;
27003;SDS011;14546;47.590;19.022;2023-04-06T09:31:27;23.90;;;10.75;;
27003;SDS011;14546;47.590;19.022;2023-04-06T09:33:55;14.40;;;8.35;;
27003;SDS011;14546;47.590;19.022;2023-04-06T09:36:34;13.52;;;7.82;;
27003;SDS011;14546;47.590;19.022;2023-04-06T09:39:03;16.63;;;7.95;;
27003;SDS011;14546;47.590;19.022;2023-04-06T09:41:36;19.58;;;7.43;;
27003;SDS011;14546;47.590;19.022;2023-04-06T09:44:11;13.93;;;7.18;;
27003;SDS011;14546;47.590;19.022;2023-04-06T09:46:38;15.38;;;7.80;;
27003;SDS011;14546;47.590;19.022;2023-04-06T09:49:06;13.20;;;6.78;;
27003;SDS011;14546;47.590;19.022;2023-04-06T09:51:36;18.58;;;9.00;;
27003;SDS011;14546;47.590;19.022;2023-04-06T09:54:03;17.13;;;8.13;;
27003;SDS011;14546;47.590;19.022;2023-04-06T09:56:31;12.20;;;7.07;;
27003;SDS011;14546;47.590;19.022;2023-04-06T09:59:14;12.15;;;7.65;;
27003;SDS011;14546;47.590;19.022;2023-04-06T10:01:50;15.10;;;7.90;;
27003;SDS011;14546;47.590;19.022;2023-04-06T10:04:24;16.75;;;9.60;;
27003;SDS011;14546;47.590;19.022;2023-04-06T10:07:06;15.77;;;9.68;;
27003;SDS011;14546;47.590;19.022;2023-04-06T10:09:34;16.20;;;7.78;;
27003;SDS011;14546;47.590;19.022;2023-04-06T10:12:04;10.48;;;6.72;;
27003;SDS011;14546;47.590;19.022;2023-04-06T10:14:32;14.80;;;7.90;;
27003;SDS011;14546;47.590;19.022;2023-04-06T10:17:02;17.95;;;7.40;;
27003;SDS011;14546;47.590;19.022;2023-04-06T10:19:32;19.63;;;10.18;;
27003;SDS011;14546;47.590;19.022;2023-04-06T10:25:15;12.07;;;6.47;;
27003;SDS011;14546;47.590;19.022;2023-04-06T10:27:41;9.45;;;6.22;;
27003;SDS011;14546;47.590;19.022;2023-04-06T10:30:07;11.68;;;6.47;;
27003;SDS011;14546;47.590;19.022;2023-04-06T10:35:06;16.15;;;7.95;;
27003;SDS011;14546;47.590;19.022;2023-04-06T10:37:45;10.15;;;5.25;;
27003;SDS011;14546;47.590;19.022;2023-04-06T10:40:19;13.20;;;7.00;;
27003;SDS011;14546;47.590;19.022;2023-04-06T10:42:45;18.02;;;10.27;;
27003;SDS011;14546;47.590;19.022;2023-04-06T10:45:23;20.35;;;7.65;;
27003;SDS011;14546;47.590;19.022;2023-04-06T10:47:52;33.88;;;12.98;;
27003;SDS011;14546;47.590;19.022;2023-04-06T10:50:18;8.98;;;5.88;;
27003;SDS011;14546;47.590;19.022;2023-04-06T10:52:44;13.02;;;6.53;;
27003;SDS011;14546;47.590;19.022;2023-04-06T10:55:14;15.27;;;6.28;;
27003;SDS011;14546;47.590;19.022;2023-04-06T10:57:40;11.05;;;5.97;;
27003;SDS011;14546;47.590;19.022;2023-04-06T11:00:06;9.70;;;5.68;;
27003;SDS011;14546;47.590;19.022;2023-04-06T11:02:34;12.27;;;6.30;;
27003;SDS011;14546;47.590;19.022;2023-04-06T11:05:02;13.27;;;6.80;;
27003;SDS011;14546;47.590;19.022;2023-04-06T11:07:28;11.95;;;6.50;;
27003;SDS011;14546;47.590;19.022;2023-04-06T11:09:55;10.70;;;6.35;;
27003;SDS011;14546;47.590;19.022;2023-04-06T11:12:22;14.13;;;5.95;;
27003;SDS011;14546;47.590;19.022;2023-04-06T11:14:56;11.88;;;6.32;;
27003;SDS011;14546;47.590;19.022;2023-04-06T11:17:29;10.80;;;6.30;;
27003;SDS011;14546;47.590;19.022;2023-04-06T11:19:55;14.02;;;7.20;;
27003;SDS011;14546;47.590;19.022;2023-04-06T11:22:22;14.13;;;6.72;;
27003;SDS011;14546;47.590;19.022;2023-04-06T11:24:47;31.05;;;8.32;;
27003;SDS011;14546;47.590;19.022;2023-04-06T11:27:16;13.23;;;6.57;;
27003;SDS011;14546;47.590;19.022;2023-04-06T11:29:43;15.52;;;7.00;;
27003;SDS011;14546;47.590;19.022;2023-04-06T11:32:19;13.82;;;6.97;;
27003;SDS011;14546;47.590;19.022;2023-04-06T11:34:49;14.73;;;7.47;;
27003;SDS011;14546;47.590;19.022;2023-04-06T11:37:15;14.55;;;6.50;;
27003;SDS011;14546;47.590;19.022;2023-04-06T11:39:43;12.00;;;6.97;;
27003;SDS011;14546;47.590;19.022;2023-04-06T11:42:20;12.23;;;7.43;;
27003;SDS011;14546;47.590;19.022;2023-04-06T11:44:49;10.73;;;6.57;;
27003;SDS011;14546;47.590;19.022;2023-04-06T11:47:28;17.10;;;7.30;;
27003;SDS011;14546;47.590;19.022;2023-04-06T11:49:55;16.30;;;7.45;;
27003;SDS011;14546;47.590;19.022;2023-04-06T11:52:24;13.70;;;8.07;;
27003;SDS011;14546;47.590;19.022;2023-04-06T11:54:52;13.75;;;7.35;;
27003;SDS011;14546;47.590;19.022;2023-04-06T11:57:21;13.90;;;6.32;;
27003;SDS011;14546;47.590;19.022;2023-04-06T11:59:50;13.95;;;7.55;;
27003;SDS011;14546;47.590;19.022;2023-04-06T12:02:17;20.08;;;8.68;;
27003;SDS011;14546;47.590;19.022;2023-04-06T12:04:43;13.30;;;6.82;;
27003;SDS011;14546;47.590;19.022;2023-04-06T12:07:09;16.65;;;6.22;;
27003;SDS011;14546;47.590;19.022;2023-04-06T12:09:34;9.10;;;5.28;;
27003;SDS011;14546;47.590;19.022;2023-04-06T12:12:01;14.15;;;6.75;;
27003;SDS011;14546;47.590;19.022;2023-04-06T12:14:28;12.20;;;6.22;;
27003;SDS011;14546;47.590;19.022;2023-04-06T12:16:55;18.30;;;7.35;;
27003;SDS011;14546;47.590;19.022;2023-04-06T12:19:22;13.00;;;6.75;;
27003;SDS011;14546;47.590;19.022;2023-04-06T12:21:50;13.85;;;7.97;;
27003;SDS011;14546;47.590;19.022;2023-04-06T12:24:17;12.75;;;5.82;;
27003;SDS011;14546;47.590;19.022;2023-04-06T12:26:42;12.02;;;6.38;;
27003;SDS011;14546;47.590;19.022;2023-04-06T12:29:08;19.70;;;8.30;;
27003;SDS011;14546;47.590;19.022;2023-04-06T12:31:34;11.77;;;6.30;;
27003;SDS011;14546;47.590;19.022;2023-04-06T12:34:04;13.38;;;5.97;;
27003;SDS011;14546;47.590;19.022;2023-04-06T12:36:30;11.32;;;6.20;;
27003;SDS011;14546;47.590;19.022;2023-04-06T12:38:56;13.10;;;6.82;;
27003;SDS011;14546;47.590;19.022;2023-04-06T12:41:21;12.70;;;6.60;;
27003;SDS011;14546;47.590;19.022;2023-04-06T12:43:48;12.32;;;6.20;;
27003;SDS011;14546;47.590;19.022;2023-04-06T12:46:16;12.93;;;6.03;;
27003;SDS011;14546;47.590;19.022;2023-04-06T12:48:42;13.65;;;6.97;;
27003;SDS011;14546;47.590;19.022;2023-04-06T12:51:08;12.77;;;7.35;;
27003;SDS011;14546;47.590;19.022;2023-04-06T12:53:34;15.23;;;6.25;;
27003;SDS011;14546;47.590;19.022;2023-04-06T12:56:00;14.15;;;6.25;;
27003;SDS011;14546;47.590;19.022;2023-04-06T12:58:27;11.07;;;6.57;;
27003;SDS011;14546;47.590;19.022;2023-04-06T13:00:54;19.13;;;7.57;;
27003;SDS011;14546;47.590;19.022;2023-04-06T13:03:21;10.98;;;6.38;;
27003;SDS011;14546;47.590;19.022;2023-04-06T13:05:47;13.38;;;5.80;;
27003;SDS011;14546;47.590;19.022;2023-04-06T13:08:18;10.13;;;6.10;;
27003;SDS011;14546;47.590;19.022;2023-04-06T13:13:14;13.45;;;6.32;;
27003;SDS011;14546;47.590;19.022;2023-04-06T13:15:40;12.07;;;5.90;;
27003;SDS011;14546;47.590;19.022;2023-04-06T13:18:06;9.07;;;5.97;;
27003;SDS011;14546;47.590;19.022;2023-04-06T13:20:32;12.25;;;6.40;;
27003;SDS011;14546;47.590;19.022;2023-04-06T13:22:57;10.13;;;5.85;;
27003;SDS011;14546;47.590;19.022;2023-04-06T13:25:23;12.45;;;5.93;;
27003;SDS011;14546;47.590;19.022;2023-04-06T13:27:49;13.18;;;5.93;;
27003;SDS011;14546;47.590;19.022;2023-04-06T13:30:15;7.47;;;4.45;;
27003;SDS011;14546;47.590;19.022;2023-04-06T13:32:41;12.30;;;6.63;;
27003;SDS011;14546;47.590;19.022;2023-04-06T13:35:07;9.27;;;6.18;;
27003;SDS011;14546;47.590;19.022;2023-04-06T13:37:33;11.23;;;6.25;;
27003;SDS011;14546;47.590;19.022;2023-04-06T13:39:59;9.65;;;6.00;;
27003;SDS011;14546;47.590;19.022;2023-04-06T13:42:25;14.18;;;6.57;;
27003;SDS011;14546;47.590;19.022;2023-04-06T13:44:52;11.23;;;5.97;;
27003;SDS011;14546;47.590;19.022;2023-04-06T13:47:18;12.07;;;6.15;;
27003;SDS011;14546;47.590;19.022;2023-04-06T13:49:45;9.02;;;5.82;;
27003;SDS011;14546;47.590;19.022;2023-04-06T13:52:11;11.65;;;7.15;;
27003;SDS011;14546;47.590;19.022;2023-04-06T13:54:37;9.73;;;6.35;;
27003;SDS011;14546;47.590;19.022;2023-04-06T13:57:03;13.73;;;7.03;;
27003;SDS011;14546;47.590;19.022;2023-04-06T13:59:33;13.38;;;6.50;;
27003;SDS011;14546;47.590;19.022;2023-04-06T14:02:02;11.93;;;6.10;;
27003;SDS011;14546;47.590;19.022;2023-04-06T14:04:29;11.30;;;5.15;;
27003;SDS011;14546;47.590;19.022;2023-04-06T14:06:55;11.95;;;5.55;;
27003;SDS011;14546;47.590;19.022;2023-04-06T14:09:21;8.52;;;5.65;;
27003;SDS011;14546;47.590;19.022;2023-04-06T14:11:47;10.93;;;5.65;;
27003;SDS011;14546;47.590;19.022;2023-04-06T14:14:13;7.93;;;5.10;;
27003;SDS011;14546;47.590;19.022;2023-04-06T14:16:40;8.57;;;5.25;;
27003;SDS011;14546;47.590;19.022;2023-04-06T14:19:08;12.05;;;5.78;;
27003;SDS011;14546;47.590;19.022;2023-04-06T14:21:38;11.52;;;6.18;;
27003;SDS011;14546;47.590;19.022;2023-04-06T14:24:05;11.60;;;6.13;;
27003;SDS011;14546;47.590;19.022;2023-04-06T14:26:32;17.55;;;7.95;;
27003;SDS011;14546;47.590;19.022;2023-04-06T14:29:01;12.30;;;7.13;;
27003;SDS011;14546;47.590;19.022;2023-04-06T14:31:27;11.52;;;6.18;;
27003;SDS011;14546;47.590;19.022;2023-04-06T14:33:53;15.95;;;7.35;;
27003;SDS011;14546;47.590;19.022;2023-04-06T14:36:19;16.02;;;6.70;;
27003;SDS011;14546;47.590;19.022;2023-04-06T14:38:45;9.23;;;6.05;;
27003;SDS011;14546;47.590;19.022;2023-04-06T14:41:16;10.32;;;5.80;;
27003;SDS011;14546;47.590;19.022;2023-04-06T14:43:48;9.10;;;5.55;;
27003;SDS011;14546;47.590;19.022;2023-04-06T14:46:14;11.35;;;5.95;;
27003;SDS011;14546;47.590;19.022;2023-04-06T14:48:42;9.55;;;5.95;;
27003;SDS011;14546;47.590;19.022;2023-04-06T14:51:08;12.98;;;6.30;;
27003;SDS011;14546;47.590;19.022;2023-04-06T14:53:34;10.40;;;6.15;;
27003;SDS011;14546;47.590;19.022;2023-04-06T14:55:59;11.55;;;6.30;;
27003;SDS011;14546;47.590;19.022;2023-04-06T14:58:28;14.50;;;6.85;;
27003;SDS011;14546;47.590;19.022;2023-04-06T15:00:57;13.07;;;6.20;;
27003;SDS011;14546;47.590;19.022;2023-04-06T15:03:25;12.00;;;6.90;;
27003;SDS011;14546;47.590;19.022;2023-04-06T15:05:56;9.80;;;6.55;;
27003;SDS011;14546;47.590;19.022;2023-04-06T15:08:22;16.10;;;7.35;;
27003;SDS011;14546;47.590;19.022;2023-04-06T15:10:48;13.48;;;7.45;;
27003;SDS011;14546;47.590;19.022;2023-04-06T15:13:14;12.07;;;7.10;;
27003;SDS011;14546;47.590;19.022;2023-04-06T15:15:40;13.90;;;8.25;;